Atwood, CO

4:11 PM MDT on July 23, 2014 (GMT -0600)
Sterling Municipal (KSTK) Elev 4039 ft | 40.62 °N, 103.26 °W | Change Station

Current weather conditions updated 16 minutes ago

Clear
Clear
93 °F
Feels Like 99 °F
N
10
Wind Variable Wind from South

Tomorrow is forecast to be Much Warmer than today.

Today
High -- | Low -- °F
--% Chance of Precip.
Yesterday
High -- | Low -- °F
Precip. -- in
5:41 AM 8:16 PM
Waning Crescent, 8% visible
Pressure 30.17 in
Visibility 10.0 miles
Clouds Clear
Heat Index 99 °F
Dew Point 70 °F
Humidity 46%
Rainfall 0.00 in
Snow Depth Not available.
UV 7 out of 12
Pollen 7.00 out of 12
Air Quality Not available.
Flu Activity Not available.
METAR KSTK 232155Z AUTO 17009KT 10SM CLR 34/21 A3017 RMK AO2

More Conditions Fewer Conditions

Pressure 30.17 in
Visibility 10.0 miles
Clouds Clear
Heat Index 99 °F
Dew Point 70 °F
Humidity 46%
Rainfall 0.00 in
Snow Depth Not available.
UV 7 out of 12
Pollen 7.00 out of 12
Air Quality Not available.
Flu Activity Not available.
METAR KSTK 232155Z AUTO 17009KT 10SM CLR 34/21 A3017 RMK AO2

More Conditions Fewer Conditions

10-Day Weather Forecast

Almanac

Astronomy

Jul. 23, 2014 Rise Set
Actual Time 5:41 AM MDT 8:16 PM MDT
Civil Twilight 5:10 AM MDT 8:48 PM MDT
Nautical Twilight 4:31 AM MDT 9:27 PM MDT
Astronomical Twilight 3:47 AM MDT 10:11 PM MDT
Moon 3:02 AM MDT 5:47 PM MDT
Length of Visible Light 15h 37m
Length of Day
14h 34m
Tomorrow will be 1m 45s shorter.
Waning Crescent, 8% of the Moon is Illuminated
Today
Waning Crescent
Jul 26
New
Aug 3
First Quarter
Aug 10
Full
Aug 17
Last Quarter

Today's Extremes

State Highs State Lows

Community

WunderPhotos

Upload Photos

1,736,802 photos uploaded!

Nearby

Snow Depth

Station Depth Elevation
Lake Irene 0 in 10700 ft
Never Summer 0 in 10280 ft
Rawah 24 in 9020 ft
Grizzly Peak 5 in 11100 ft
Michigan Creek 0 in 10600 ft

Earthquake Activity

City Distance Mag. Time & Date
No recent earthquake activity has been reported nearby.
Minimum magnitude displayed is 2.5.

Coastal Water Temperatures

Place Temperature
No Stations Reporting

Nearby Weather Stations

Station Location Temp. Heat Index Dew Point Humidity Wind Precip. Elev Updated Type
Charmony, Sterling, CO 92.1 °F 97 °F 69 °F 47% NW  at  4.7 mph - / hr 3930 ft 4:02 PM MDT Normal
Northern Washington County, Akron, CO 90.5 °F 93 °F 66 °F 44% SSE  at  18.6 mph - / hr 4453 ft 3:58 PM MDT Normal

Show More Stations Show Fewer Stations